Grand Forks, North Dakota
Current Conditions -  °F | °C
As of 10:53 PM on Tuesday 21 Oct 2014 (Local Time) from KGFK Reporting Station
Clear Clear  
Wind Chill: 12°   Ceiling: Unl
Heat Index: 12°   Visibility: 10mi
Dew Point:   Wind: 21mph
Humidity: 64%   Direction: 160°SSE
Pressure: 29.86"   Gusts: 32mph
Location:  47.92°N, 97.03°W
Report Text: KGFK 220353Z 16018G28KT 10SM CLR 12/05 A2986 RMK AO2 PK WND 16028/0346 SLP115 T01170050
Loading
Personal Weather Stations






























Interactive Weather Map
Tropical Storm Tracking
New forecast layout! Learn more

10-Day Weather Forecast

Advertisements
Track Severe Weather on mobile